Terminal Aerodrome Forecast
Issued by NWS El Paso, TX

Current Version | Previous Version | Text Only | Print | Product List | Glossary On
Versions: 1 2 3 4 5 6 7 8 9 10 11 12
000
FTUS44 KEPZ 022336
TAFELP
TAF
KELP 022336Z 0300/0324 15005KT P6SM VCTS FEW090CB SCT120 BKN260
     FM030300 06008KT P6SM VCSH SCT090 BKN120 OVC250
     FM031400 31011KT P6SM SCT110 BKN150
     FM032100 27009KT P6SM SCT080 BKN150=

USA.gov is the U.S. government's official web portal to all federal, state and local government web resources and services.